sensor_id;sensor_type;location;lat;lon;timestamp;pressure;altitude;pressure_sealevel;temperature;humidity
50484;BME280;36409;52.168;20.878;2023-01-29T00:00:26;101405.52;;;-1.79;77.40
50484;BME280;36409;52.168;20.878;2023-01-29T00:03:15;101414.06;;;-1.79;77.25
50484;BME280;36409;52.168;20.878;2023-01-29T00:05:44;101419.98;;;-1.80;76.94
50484;BME280;36409;52.168;20.878;2023-01-29T00:08:13;101416.48;;;-1.82;76.96
50484;BME280;36409;52.168;20.878;2023-01-29T00:10:42;101401.03;;;-1.83;76.67
50484;BME280;36409;52.168;20.878;2023-01-29T00:13:12;101396.01;;;-1.82;76.98
50484;BME280;36409;52.168;20.878;2023-01-29T00:15:41;101392.55;;;-1.82;77.10
50484;BME280;36409;52.168;20.878;2023-01-29T00:18:10;101395.05;;;-1.84;77.29
50484;BME280;36409;52.168;20.878;2023-01-29T00:20:42;101385.53;;;-1.87;76.87
50484;BME280;36409;52.168;20.878;2023-01-29T00:23:11;101386.40;;;-1.86;76.83
50484;BME280;36409;52.168;20.878;2023-01-29T00:25:40;101384.63;;;-1.87;76.85
50484;BME280;36409;52.168;20.878;2023-01-29T00:28:10;101370.87;;;-1.89;77.20
50484;BME280;36409;52.168;20.878;2023-01-29T00:30:40;101375.92;;;-1.91;77.29
50484;BME280;36409;52.168;20.878;2023-01-29T00:33:09;101377.58;;;-1.91;76.61
50484;BME280;36409;52.168;20.878;2023-01-29T00:35:40;101363.85;;;-1.93;77.05
50484;BME280;36409;52.168;20.878;2023-01-29T00:38:09;101368.97;;;-1.93;76.62
50484;BME280;36409;52.168;20.878;2023-01-29T00:40:39;101370.56;;;-1.95;76.89
50484;BME280;36409;52.168;20.878;2023-01-29T00:43:26;101372.16;;;-1.97;76.67
50484;BME280;36409;52.168;20.878;2023-01-29T00:46:14;101365.27;;;-1.98;76.83
50484;BME280;36409;52.168;20.878;2023-01-29T00:48:43;101358.39;;;-1.99;76.41
50484;BME280;36409;52.168;20.878;2023-01-29T00:51:12;101361.05;;;-1.98;76.22
50484;BME280;36409;52.168;20.878;2023-01-29T00:53:41;101371.98;;;-2.00;76.36
50484;BME280;36409;52.168;20.878;2023-01-29T00:56:10;101353.10;;;-2.03;76.51
50484;BME280;36409;52.168;20.878;2023-01-29T00:58:39;101354.00;;;-2.02;76.68
50484;BME280;36409;52.168;20.878;2023-01-29T01:01:08;101347.98;;;-2.03;76.56
50484;BME280;36409;52.168;20.878;2023-01-29T01:03:37;101354.80;;;-2.03;77.04
50484;BME280;36409;52.168;20.878;2023-01-29T01:06:10;101348.81;;;-2.04;76.60
50484;BME280;36409;52.168;20.878;2023-01-29T01:08:39;101340.23;;;-2.04;76.68
50484;BME280;36409;52.168;20.878;2023-01-29T01:11:27;101321.46;;;-2.05;76.27
50484;BME280;36409;52.168;20.878;2023-01-29T01:13:56;101314.48;;;-2.07;76.57
50484;BME280;36409;52.168;20.878;2023-01-29T01:16:31;101309.30;;;-2.09;76.46
50484;BME280;36409;52.168;20.878;2023-01-29T01:19:00;101299.86;;;-2.10;76.72
50484;BME280;36409;52.168;20.878;2023-01-29T01:21:33;101303.20;;;-2.11;76.37
50484;BME280;36409;52.168;20.878;2023-01-29T01:24:02;101300.58;;;-2.12;76.62
50484;BME280;36409;52.168;20.878;2023-01-29T01:26:33;101300.66;;;-2.11;77.08
50484;BME280;36409;52.168;20.878;2023-01-29T01:29:02;101305.77;;;-2.11;76.54
50484;BME280;36409;52.168;20.878;2023-01-29T01:31:33;101305.77;;;-2.11;76.59
50484;BME280;36409;52.168;20.878;2023-01-29T01:34:02;101302.34;;;-2.11;76.83
50484;BME280;36409;52.168;20.878;2023-01-29T01:36:33;101302.34;;;-2.11;76.68
50484;BME280;36409;52.168;20.878;2023-01-29T01:39:05;101306.56;;;-2.12;76.73
50484;BME280;36409;52.168;20.878;2023-01-29T01:41:35;101306.56;;;-2.12;76.62
50484;BME280;36409;52.168;20.878;2023-01-29T01:44:06;101309.92;;;-2.13;76.81
50484;BME280;36409;52.168;20.878;2023-01-29T01:46:37;101300.58;;;-2.12;76.24
50484;BME280;36409;52.168;20.878;2023-01-29T01:49:10;101300.58;;;-2.12;76.62
50484;BME280;36409;52.168;20.878;2023-01-29T01:51:47;101303.08;;;-2.14;76.46
50484;BME280;36409;52.168;20.878;2023-01-29T01:54:19;101313.31;;;-2.14;76.99
50484;BME280;36409;52.168;20.878;2023-01-29T01:56:55;101315.87;;;-2.14;76.49
50484;BME280;36409;52.168;20.878;2023-01-29T01:59:32;101315.03;;;-2.13;76.69
50484;BME280;36409;52.168;20.878;2023-01-29T02:02:03;101307.36;;;-2.13;76.61
50484;BME280;36409;52.168;20.878;2023-01-29T02:04:52;101305.63;;;-2.14;76.52
50484;BME280;36409;52.168;20.878;2023-01-29T02:07:43;101318.49;;;-2.12;76.87
50484;BME280;36409;52.168;20.878;2023-01-29T02:10:37;101310.75;;;-2.14;76.46
50484;BME280;36409;52.168;20.878;2023-01-29T02:13:08;101306.43;;;-2.15;76.85
50484;BME280;36409;52.168;20.878;2023-01-29T02:15:37;101315.87;;;-2.14;76.57
50484;BME280;36409;52.168;20.878;2023-01-29T02:18:15;101311.55;;;-2.15;76.44
50484;BME280;36409;52.168;20.878;2023-01-29T02:21:02;101317.53;;;-2.14;76.44
50484;BME280;36409;52.168;20.878;2023-01-29T02:24:05;101314.11;;;-2.15;76.81
50484;BME280;36409;52.168;20.878;2023-01-29T02:26:52;101310.64;;;-2.15;76.35
50484;BME280;36409;52.168;20.878;2023-01-29T02:29:34;101303.77;;;-2.17;76.57
50484;BME280;36409;52.168;20.878;2023-01-29T02:32:18;101299.55;;;-2.16;76.67
50484;BME280;36409;52.168;20.878;2023-01-29T02:35:03;101284.99;;;-2.17;76.51
50484;BME280;36409;52.168;20.878;2023-01-29T02:37:57;101293.53;;;-2.17;76.16
50484;BME280;36409;52.168;20.878;2023-01-29T02:40:33;101286.66;;;-2.18;76.58
50484;BME280;36409;52.168;20.878;2023-01-29T02:43:18;101291.77;;;-2.18;76.58
50484;BME280;36409;52.168;20.878;2023-01-29T02:46:00;101288.42;;;-2.17;76.28
50484;BME280;36409;52.168;20.878;2023-01-29T02:48:40;101286.66;;;-2.18;76.79
50484;BME280;36409;52.168;20.878;2023-01-29T02:51:17;101279.88;;;-2.17;76.64
50484;BME280;36409;52.168;20.878;2023-01-29T02:53:52;101278.19;;;-2.17;76.34
50484;BME280;36409;52.168;20.878;2023-01-29T02:56:33;101273.07;;;-2.17;76.62
50484;BME280;36409;52.168;20.878;2023-01-29T02:59:08;101274.77;;;-2.17;76.23
50484;BME280;36409;52.168;20.878;2023-01-29T03:01:44;101280.67;;;-2.18;76.72
50484;BME280;36409;52.168;20.878;2023-01-29T03:04:28;101276.42;;;-2.18;76.47
50484;BME280;36409;52.168;20.878;2023-01-29T03:07:03;101270.44;;;-2.18;76.32
50484;BME280;36409;52.168;20.878;2023-01-29T03:09:35;101263.63;;;-2.18;76.59
50484;BME280;36409;52.168;20.878;2023-01-29T03:12:12;101264.53;;;-2.17;76.26
50484;BME280;36409;52.168;20.878;2023-01-29T03:14:57;101261.17;;;-2.16;76.32
50484;BME280;36409;52.168;20.878;2023-01-29T03:17:48;101257.65;;;-2.18;76.21
50484;BME280;36409;52.168;20.878;2023-01-29T03:20:26;101260.20;;;-2.18;76.39
50484;BME280;36409;52.168;20.878;2023-01-29T03:23:03;101274.77;;;-2.17;76.45
50484;BME280;36409;52.168;20.878;2023-01-29T03:25:35;101264.36;;;-2.20;76.03
50484;BME280;36409;52.168;20.878;2023-01-29T03:28:30;101259.31;;;-2.19;76.52
50484;BME280;36409;52.168;20.878;2023-01-29T03:31:20;101255.89;;;-2.19;76.19
50484;BME280;36409;52.168;20.878;2023-01-29T03:34:13;101259.24;;;-2.20;76.56
50484;BME280;36409;52.168;20.878;2023-01-29T03:36:57;101264.42;;;-2.19;76.99
50484;BME280;36409;52.168;20.878;2023-01-29T03:39:30;101267.09;;;-2.17;76.56
50484;BME280;36409;52.168;20.878;2023-01-29T03:42:08;101256.86;;;-2.17;76.69
50484;BME280;36409;52.168;20.878;2023-01-29T03:44:50;101252.60;;;-2.17;76.08
50484;BME280;36409;52.168;20.878;2023-01-29T03:47:34;101262.83;;;-2.17;76.55
50484;BME280;36409;52.168;20.878;2023-01-29T03:50:14;101265.49;;;-2.15;76.46
50484;BME280;36409;52.168;20.878;2023-01-29T03:52:55;101267.16;;;-2.15;76.62
50484;BME280;36409;52.168;20.878;2023-01-29T03:55:34;101260.37;;;-2.15;76.46
50484;BME280;36409;52.168;20.878;2023-01-29T03:58:16;101255.26;;;-2.15;76.30
50484;BME280;36409;52.168;20.878;2023-01-29T04:00:53;101251.08;;;-2.13;76.74
50484;BME280;36409;52.168;20.878;2023-01-29T04:03:30;101247.65;;;-2.13;76.63
50484;BME280;36409;52.168;20.878;2023-01-29T04:06:08;101248.52;;;-2.13;76.77
50484;BME280;36409;52.168;20.878;2023-01-29T04:08:57;101244.30;;;-2.12;76.43
50484;BME280;36409;52.168;20.878;2023-01-29T04:11:29;101241.73;;;-2.12;76.18
50484;BME280;36409;52.168;20.878;2023-01-29T04:13:59;101248.61;;;-2.11;76.56
50484;BME280;36409;52.168;20.878;2023-01-29T04:16:34;101246.06;;;-2.11;76.17
50484;BME280;36409;52.168;20.878;2023-01-29T04:19:20;101240.20;;;-2.09;76.43
50484;BME280;36409;52.168;20.878;2023-01-29T04:22:02;101241.00;;;-2.10;76.83
50484;BME280;36409;52.168;20.878;2023-01-29T04:24:34;101229.11;;;-2.09;76.97
50484;BME280;36409;52.168;20.878;2023-01-29T04:27:16;101228.21;;;-2.10;76.19
50484;BME280;36409;52.168;20.878;2023-01-29T04:30:03;101226.55;;;-2.09;76.44
50484;BME280;36409;52.168;20.878;2023-01-29T04:32:44;101222.30;;;-2.09;76.12
50484;BME280;36409;52.168;20.878;2023-01-29T04:35:28;101221.44;;;-2.09;76.09
50484;BME280;36409;52.168;20.878;2023-01-29T04:38:07;101224.79;;;-2.10;76.10
50484;BME280;36409;52.168;20.878;2023-01-29T04:40:49;101219.73;;;-2.09;76.75
50484;BME280;36409;52.168;20.878;2023-01-29T04:43:27;101225.66;;;-2.10;76.57
50484;BME280;36409;52.168;20.878;2023-01-29T04:46:09;101221.50;;;-2.08;76.76
50484;BME280;36409;52.168;20.878;2023-01-29T04:48:59;101230.04;;;-2.07;76.60
50484;BME280;36409;52.168;20.878;2023-01-29T04:51:37;101225.82;;;-2.07;76.41
50484;BME280;36409;52.168;20.878;2023-01-29T04:54:15;101217.34;;;-2.06;76.17
50484;BME280;36409;52.168;20.878;2023-01-29T04:56:52;101218.14;;;-2.07;76.15
50484;BME280;36409;52.168;20.878;2023-01-29T04:59:29;101206.22;;;-2.06;76.26
50484;BME280;36409;52.168;20.878;2023-01-29T05:02:01;101200.30;;;-2.05;76.90
50484;BME280;36409;52.168;20.878;2023-01-29T05:04:33;101200.30;;;-2.05;76.13
50484;BME280;36409;52.168;20.878;2023-01-29T05:07:06;101203.75;;;-2.05;76.31
50484;BME280;36409;52.168;20.878;2023-01-29T05:09:38;101199.50;;;-2.04;76.20
50484;BME280;36409;52.168;20.878;2023-01-29T05:12:12;101199.44;;;-2.06;76.39
50484;BME280;36409;52.168;20.878;2023-01-29T05:14:44;101199.44;;;-2.06;76.44
50484;BME280;36409;52.168;20.878;2023-01-29T05:17:16;101211.42;;;-2.05;76.21
50484;BME280;36409;52.168;20.878;2023-01-29T05:19:47;101201.99;;;-2.06;76.60
50484;BME280;36409;52.168;20.878;2023-01-29T05:22:18;101203.66;;;-2.06;76.47
50484;BME280;36409;52.168;20.878;2023-01-29T05:24:53;101196.88;;;-2.06;75.97
50484;BME280;36409;52.168;20.878;2023-01-29T05:27:34;101197.73;;;-2.05;75.96
50484;BME280;36409;52.168;20.878;2023-01-29T05:30:24;101196.88;;;-2.06;76.22
50484;BME280;36409;52.168;20.878;2023-01-29T05:32:56;101196.08;;;-2.05;76.82
50484;BME280;36409;52.168;20.878;2023-01-29T05:35:27;101187.50;;;-2.05;76.35
50484;BME280;36409;52.168;20.878;2023-01-29T05:37:58;101181.52;;;-2.06;76.03
50484;BME280;36409;52.168;20.878;2023-01-29T05:40:28;101175.61;;;-2.05;75.98
50484;BME280;36409;52.168;20.878;2023-01-29T05:42:58;101180.78;;;-2.03;76.13
50484;BME280;36409;52.168;20.878;2023-01-29T05:45:27;101188.47;;;-2.03;76.17
50484;BME280;36409;52.168;20.878;2023-01-29T05:47:58;101185.91;;;-2.03;76.91
50484;BME280;36409;52.168;20.878;2023-01-29T05:50:27;101179.98;;;-2.02;76.29
50484;BME280;36409;52.168;20.878;2023-01-29T05:52:58;101180.85;;;-2.02;76.13
50484;BME280;36409;52.168;20.878;2023-01-29T05:55:29;101171.41;;;-2.03;76.70
50484;BME280;36409;52.168;20.878;2023-01-29T05:57:59;101176.63;;;-2.01;76.29
50484;BME280;36409;52.168;20.878;2023-01-29T06:00:30;101178.39;;;-2.00;76.12
50484;BME280;36409;52.168;20.878;2023-01-29T06:02:59;101171.58;;;-1.99;75.99
50484;BME280;36409;52.168;20.878;2023-01-29T06:05:29;101173.27;;;-2.00;76.36
50484;BME280;36409;52.168;20.878;2023-01-29T06:08:00;101176.70;;;-1.99;76.11
50484;BME280;36409;52.168;20.878;2023-01-29T06:10:29;101185.27;;;-1.99;76.74
50484;BME280;36409;52.168;20.878;2023-01-29T06:12:59;101181.02;;;-1.98;76.66
50484;BME280;36409;52.168;20.878;2023-01-29T06:15:29;101184.47;;;-1.98;76.20
50484;BME280;36409;52.168;20.878;2023-01-29T06:17:59;101189.66;;;-1.96;76.45
50484;BME280;36409;52.168;20.878;2023-01-29T06:20:28;101188.75;;;-1.97;76.77
50484;BME280;36409;52.168;20.878;2023-01-29T06:23:01;101189.72;;;-1.95;76.17
50484;BME280;36409;52.168;20.878;2023-01-29T06:25:30;101186.36;;;-1.94;75.90
50484;BME280;36409;52.168;20.878;2023-01-29T06:27:59;101193.17;;;-1.94;76.39
50484;BME280;36409;52.168;20.878;2023-01-29T06:30:29;101193.23;;;-1.93;76.30
50484;BME280;36409;52.168;20.878;2023-01-29T06:32:59;101188.18;;;-1.91;76.08
50484;BME280;36409;52.168;20.878;2023-01-29T06:35:30;101186.59;;;-1.89;76.39
50484;BME280;36409;52.168;20.878;2023-01-29T06:37:59;101186.68;;;-1.88;76.71
50484;BME280;36409;52.168;20.878;2023-01-29T06:40:29;101189.24;;;-1.88;76.49
50484;BME280;36409;52.168;20.878;2023-01-29T06:43:00;101177.37;;;-1.86;76.59
50484;BME280;36409;52.168;20.878;2023-01-29T06:45:30;101181.78;;;-1.83;76.02
50484;BME280;36409;52.168;20.878;2023-01-29T06:48:00;101183.45;;;-1.83;76.06
50484;BME280;36409;52.168;20.878;2023-01-29T06:50:29;101180.98;;;-1.82;76.61
50484;BME280;36409;52.168;20.878;2023-01-29T06:52:59;101185.30;;;-1.81;76.28
50484;BME280;36409;52.168;20.878;2023-01-29T06:55:30;101181.05;;;-1.80;76.25
50484;BME280;36409;52.168;20.878;2023-01-29T06:57:59;101185.37;;;-1.79;76.07
50484;BME280;36409;52.168;20.878;2023-01-29T07:00:33;101180.31;;;-1.78;76.39
50484;BME280;36409;52.168;20.878;2023-01-29T07:03:03;101182.08;;;-1.77;76.06
50484;BME280;36409;52.168;20.878;2023-01-29T07:05:32;101188.16;;;-1.75;76.21
50484;BME280;36409;52.168;20.878;2023-01-29T07:08:01;101177.91;;;-1.75;76.69
50484;BME280;36409;52.168;20.878;2023-01-29T07:10:31;101172.05;;;-1.72;76.16
50484;BME280;36409;52.168;20.878;2023-01-29T07:13:00;101152.47;;;-1.72;75.79
50484;BME280;36409;52.168;20.878;2023-01-29T07:15:32;101148.21;;;-1.71;76.27
50484;BME280;36409;52.168;20.878;2023-01-29T07:18:05;101142.29;;;-1.70;76.09
50484;BME280;36409;52.168;20.878;2023-01-29T07:20:42;101145.80;;;-1.68;76.24
50484;BME280;36409;52.168;20.878;2023-01-29T07:23:12;101162.19;;;-1.64;75.80
50484;BME280;36409;52.168;20.878;2023-01-29T07:25:43;101164.81;;;-1.63;75.85
50484;BME280;36409;52.168;20.878;2023-01-29T07:28:15;101165.86;;;-1.59;76.18
50484;BME280;36409;52.168;20.878;2023-01-29T07:30:46;101161.66;;;-1.57;76.07
50484;BME280;36409;52.168;20.878;2023-01-29T07:33:15;101164.38;;;-1.54;76.43
50484;BME280;36409;52.168;20.878;2023-01-29T07:35:47;101169.60;;;-1.52;76.27
50484;BME280;36409;52.168;20.878;2023-01-29T07:38:16;101183.33;;;-1.50;76.59
50484;BME280;36409;52.168;20.878;2023-01-29T07:40:45;101183.42;;;-1.49;76.27
50484;BME280;36409;52.168;20.878;2023-01-29T07:43:16;101187.80;;;-1.46;76.10
50484;BME280;36409;52.168;20.878;2023-01-29T07:45:45;101183.64;;;-1.44;76.45
50484;BME280;36409;52.168;20.878;2023-01-29T07:48:19;101188.09;;;-1.40;75.74
50484;BME280;36409;52.168;20.878;2023-01-29T07:50:55;101182.25;;;-1.37;76.22
50484;BME280;36409;52.168;20.878;2023-01-29T07:53:26;101183.27;;;-1.34;76.33
50484;BME280;36409;52.168;20.878;2023-01-29T07:55:56;101185.09;;;-1.31;75.55
50484;BME280;36409;52.168;20.878;2023-01-29T07:58:26;101175.80;;;-1.29;76.20
50484;BME280;36409;52.168;20.878;2023-01-29T08:00:58;101165.77;;;-1.25;76.48
50484;BME280;36409;52.168;20.878;2023-01-29T08:03:27;101161.75;;;-1.19;75.82
50484;BME280;36409;52.168;20.878;2023-01-29T08:06:02;101163.63;;;-1.15;76.24
50484;BME280;36409;52.168;20.878;2023-01-29T08:08:31;101162.08;;;-1.12;76.18
50484;BME280;36409;52.168;20.878;2023-01-29T08:11:02;101170.72;;;-1.10;75.62
50484;BME280;36409;52.168;20.878;2023-01-29T08:13:35;101163.03;;;-1.10;75.77
50484;BME280;36409;52.168;20.878;2023-01-29T08:16:06;101161.42;;;-1.07;75.96
50484;BME280;36409;52.168;20.878;2023-01-29T08:18:37;101158.86;;;-1.07;76.01
50484;BME280;36409;52.168;20.878;2023-01-29T08:21:06;101144.43;;;-1.05;75.93
50484;BME280;36409;52.168;20.878;2023-01-29T08:23:35;101146.19;;;-1.04;75.85
50484;BME280;36409;52.168;20.878;2023-01-29T08:26:04;101149.70;;;-1.02;76.26
50484;BME280;36409;52.168;20.878;2023-01-29T08:28:33;101147.14;;;-1.02;75.89
50484;BME280;36409;52.168;20.878;2023-01-29T08:31:02;101149.77;;;-1.01;75.69
50484;BME280;36409;52.168;20.878;2023-01-29T08:33:32;101142.13;;;-0.99;75.53
50484;BME280;36409;52.168;20.878;2023-01-29T08:36:09;101144.04;;;-0.95;75.55
50484;BME280;36409;52.168;20.878;2023-01-29T08:38:38;101144.19;;;-0.92;76.08
50484;BME280;36409;52.168;20.878;2023-01-29T08:41:07;101151.98;;;-0.89;75.32
50484;BME280;36409;52.168;20.878;2023-01-29T08:43:37;101154.75;;;-0.84;75.31
50484;BME280;36409;52.168;20.878;2023-01-29T08:46:08;101150.73;;;-0.79;75.38
50484;BME280;36409;52.168;20.878;2023-01-29T08:48:37;101150.18;;;-0.72;75.47
50484;BME280;36409;52.168;20.878;2023-01-29T08:51:07;101152.08;;;-0.68;75.21
50484;BME280;36409;52.168;20.878;2023-01-29T08:53:37;101143.64;;;-0.65;75.43
50484;BME280;36409;52.168;20.878;2023-01-29T08:56:07;101134.38;;;-0.62;74.98
50484;BME280;36409;52.168;20.878;2023-01-29T08:58:36;101138.84;;;-0.57;74.93
50484;BME280;36409;52.168;20.878;2023-01-29T09:01:10;101135.48;;;-0.56;75.78
50484;BME280;36409;52.168;20.878;2023-01-29T09:03:39;101136.62;;;-0.50;74.99
50484;BME280;36409;52.168;20.878;2023-01-29T09:06:12;101127.64;;;-0.40;74.81
50484;BME280;36409;52.168;20.878;2023-01-29T09:08:42;101124.76;;;-0.26;74.89
50484;BME280;36409;52.168;20.878;2023-01-29T09:11:11;101120.14;;;-0.14;75.53
50484;BME280;36409;52.168;20.878;2023-01-29T09:13:40;101114.52;;;-0.05;75.52
50484;BME280;36409;52.168;20.878;2023-01-29T09:16:09;101106.33;;;0.04;75.34
50484;BME280;36409;52.168;20.878;2023-01-29T09:18:38;101099.94;;;0.15;74.79
50484;BME280;36409;52.168;20.878;2023-01-29T09:21:07;101103.55;;;0.20;75.17
50484;BME280;36409;52.168;20.878;2023-01-29T09:23:36;101095.92;;;0.22;74.48
50484;BME280;36409;52.168;20.878;2023-01-29T09:26:06;101092.77;;;0.29;75.13
50484;BME280;36409;52.168;20.878;2023-01-29T09:28:38;101093.89;;;0.36;74.43
50484;BME280;36409;52.168;20.878;2023-01-29T09:31:07;101096.38;;;0.34;75.39
50484;BME280;36409;52.168;20.878;2023-01-29T09:33:36;101102.23;;;0.30;75.23
50484;BME280;36409;52.168;20.878;2023-01-29T09:36:07;101096.73;;;0.21;74.36
50484;BME280;36409;52.168;20.878;2023-01-29T09:38:36;101104.17;;;0.14;75.10
50484;BME280;36409;52.168;20.878;2023-01-29T09:41:17;101098.05;;;0.11;74.72
50484;BME280;36409;52.168;20.878;2023-01-29T09:43:55;101092.09;;;0.12;74.70
50484;BME280;36409;52.168;20.878;2023-01-29T09:46:32;101087.14;;;0.17;75.23
50484;BME280;36409;52.168;20.878;2023-01-29T09:49:10;101083.12;;;0.23;74.67
50484;BME280;36409;52.168;20.878;2023-01-29T09:51:42;101084.37;;;0.33;75.05
50484;BME280;36409;52.168;20.878;2023-01-29T09:54:16;101073.64;;;0.43;74.54
50484;BME280;36409;52.168;20.878;2023-01-29T09:56:48;101074.92;;;0.55;75.27
50484;BME280;36409;52.168;20.878;2023-01-29T09:59:21;101064.27;;;0.68;74.42
50484;BME280;36409;52.168;20.878;2023-01-29T10:01:54;101064.03;;;0.85;74.39
50484;BME280;36409;52.168;20.878;2023-01-29T10:04:43;101056.27;;;1.07;74.85
50484;BME280;36409;52.168;20.878;2023-01-29T10:07:41;101062.20;;;1.31;74.79
50484;BME280;36409;52.168;20.878;2023-01-29T10:10:21;101053.78;;;1.35;74.20
50484;BME280;36409;52.168;20.878;2023-01-29T10:12:59;101056.31;;;1.33;74.23
50484;BME280;36409;52.168;20.878;2023-01-29T10:15:49;101050.16;;;1.30;74.97
50484;BME280;36409;52.168;20.878;2023-01-29T10:21:36;101040.95;;;1.11;74.37
50484;BME280;36409;52.168;20.878;2023-01-29T10:24:18;101042.44;;;1.04;74.12
50484;BME280;36409;52.168;20.878;2023-01-29T10:26:50;101043.02;;;0.97;74.29
50484;BME280;36409;52.168;20.878;2023-01-29T10:29:20;101046.36;;;0.94;74.23
50484;BME280;36409;52.168;20.878;2023-01-29T10:31:52;101042.77;;;0.89;74.91
50484;BME280;36409;52.168;20.878;2023-01-29T10:34:28;101047.67;;;0.83;75.03
50484;BME280;36409;52.168;20.878;2023-01-29T10:37:10;101047.34;;;0.73;74.76
50484;BME280;36409;52.168;20.878;2023-01-29T10:39:42;101040.28;;;0.68;74.38
50484;BME280;36409;52.168;20.878;2023-01-29T10:42:33;101049.49;;;0.63;75.07
50484;BME280;36409;52.168;20.878;2023-01-29T10:45:17;101041.53;;;0.55;74.27
50484;BME280;36409;52.168;20.878;2023-01-29T10:48:06;101036.14;;;0.49;74.39
50484;BME280;36409;52.168;20.878;2023-01-29T10:50:47;101039.52;;;0.48;75.24
50484;BME280;36409;52.168;20.878;2023-01-29T10:53:41;101046.29;;;0.45;74.27
50484;BME280;36409;52.168;20.878;2023-01-29T10:56:22;101035.75;;;0.38;74.47
50484;BME280;36409;52.168;20.878;2023-01-29T10:58:58;101032.07;;;0.31;74.36
50484;BME280;36409;52.168;20.878;2023-01-29T11:01:28;101032.93;;;0.32;75.40
50484;BME280;36409;52.168;20.878;2023-01-29T11:04:01;101022.83;;;0.36;74.55
50484;BME280;36409;52.168;20.878;2023-01-29T11:06:33;101017.00;;;0.40;75.57
50484;BME280;36409;52.168;20.878;2023-01-29T11:09:07;101011.91;;;0.42;75.46
50484;BME280;36409;52.168;20.878;2023-01-29T11:11:42;101005.19;;;0.45;75.43
50484;BME280;36409;52.168;20.878;2023-01-29T11:14:18;101006.20;;;0.49;74.95
50484;BME280;36409;52.168;20.878;2023-01-29T11:16:49;101011.51;;;0.54;74.70
50484;BME280;36409;52.168;20.878;2023-01-29T11:19:36;101007.35;;;0.57;74.71
50484;BME280;36409;52.168;20.878;2023-01-29T11:22:13;101004.09;;;0.61;75.48
50484;BME280;36409;52.168;20.878;2023-01-29T11:24:43;100994.83;;;0.67;75.31
50484;BME280;36409;52.168;20.878;2023-01-29T11:27:27;100989.00;;;0.71;74.91
50484;BME280;36409;52.168;20.878;2023-01-29T11:30:01;100979.73;;;0.76;75.34
50484;BME280;36409;52.168;20.878;2023-01-29T11:32:33;100979.08;;;0.82;75.45
50484;BME280;36409;52.168;20.878;2023-01-29T11:35:17;100966.39;;;0.86;75.80
50484;BME280;36409;52.168;20.878;2023-01-29T11:37:48;100961.36;;;0.89;74.54
50484;BME280;36409;52.168;20.878;2023-01-29T11:40:37;100956.22;;;0.89;75.60
50484;BME280;36409;52.168;20.878;2023-01-29T11:43:32;100945.98;;;0.91;75.73
50484;BME280;36409;52.168;20.878;2023-01-29T11:46:05;100946.76;;;0.88;74.63
50484;BME280;36409;52.168;20.878;2023-01-29T11:48:43;100935.50;;;0.85;75.61
50484;BME280;36409;52.168;20.878;2023-01-29T11:51:26;100937.02;;;0.80;74.66
50484;BME280;36409;52.168;20.878;2023-01-29T11:54:01;100925.77;;;0.76;75.62
50484;BME280;36409;52.168;20.878;2023-01-29T11:56:40;100932.39;;;0.69;74.54
50484;BME280;36409;52.168;20.878;2023-01-29T11:59:26;100941.57;;;0.63;75.64
50484;BME280;36409;52.168;20.878;2023-01-29T12:02:26;100923.38;;;0.56;75.35
50484;BME280;36409;52.168;20.878;2023-01-29T12:05:02;100916.45;;;0.54;74.89
50484;BME280;36409;52.168;20.878;2023-01-29T12:07:33;100922.24;;;0.48;75.32
50484;BME280;36409;52.168;20.878;2023-01-29T12:10:29;100911.64;;;0.39;75.65
50484;BME280;36409;52.168;20.878;2023-01-29T12:13:24;100918.25;;;0.32;75.64
50484;BME280;36409;52.168;20.878;2023-01-29T12:16:14;100909.36;;;0.24;75.60
50484;BME280;36409;52.168;20.878;2023-01-29T12:18:52;100911.84;;;0.21;75.11
50484;BME280;36409;52.168;20.878;2023-01-29T12:21:33;100904.02;;;0.18;75.43
50484;BME280;36409;52.168;20.878;2023-01-29T12:24:21;100889.30;;;0.13;75.51
50484;BME280;36409;52.168;20.878;2023-01-29T12:26:59;100897.83;;;0.12;75.68
50484;BME280;36409;52.168;20.878;2023-01-29T12:29:39;100900.34;;;0.11;75.90
50484;BME280;36409;52.168;20.878;2023-01-29T12:32:21;100889.95;;;0.08;75.24
50484;BME280;36409;52.168;20.878;2023-01-29T12:34:58;100886.41;;;0.04;75.11
50484;BME280;36409;52.168;20.878;2023-01-29T12:37:43;100888.03;;;0.02;75.27
50484;BME280;36409;52.168;20.878;2023-01-29T12:40:22;100881.11;;;-0.01;75.98
50484;BME280;36409;52.168;20.878;2023-01-29T12:42:57;100878.41;;;-0.04;75.35
50484;BME280;36409;52.168;20.878;2023-01-29T12:45:32;100873.23;;;-0.05;75.74
50484;BME280;36409;52.168;20.878;2023-01-29T12:48:06;100866.34;;;-0.06;75.35
50484;BME280;36409;52.168;20.878;2023-01-29T12:50:40;100863.78;;;-0.06;75.52
50484;BME280;36409;52.168;20.878;2023-01-29T12:53:30;100863.73;;;-0.08;75.50
50484;BME280;36409;52.168;20.878;2023-01-29T12:56:09;100861.09;;;-0.09;75.41
50484;BME280;36409;52.168;20.878;2023-01-29T12:58:45;100855.96;;;-0.09;75.59
50484;BME280;36409;52.168;20.878;2023-01-29T13:01:26;100855.05;;;-0.11;75.83
50484;BME280;36409;52.168;20.878;2023-01-29T13:04:04;100842.15;;;-0.13;76.09
50484;BME280;36409;52.168;20.878;2023-01-29T13:06:41;100849.84;;;-0.13;75.97
50484;BME280;36409;52.168;20.878;2023-01-29T13:09:47;100850.57;;;-0.17;75.60
50484;BME280;36409;52.168;20.878;2023-01-29T13:12:25;100864.22;;;-0.18;76.01
50484;BME280;36409;52.168;20.878;2023-01-29T13:15:04;100870.04;;;-0.22;76.34
50484;BME280;36409;52.168;20.878;2023-01-29T13:17:45;100870.73;;;-0.26;75.35
50484;BME280;36409;52.168;20.878;2023-01-29T13:20:24;100878.33;;;-0.29;75.33
50484;BME280;36409;52.168;20.878;2023-01-29T13:23:12;100884.28;;;-0.30;76.24
50484;BME280;36409;52.168;20.878;2023-01-29T13:25:43;100885.01;;;-0.33;76.06
50484;BME280;36409;52.168;20.878;2023-01-29T13:28:21;100883.29;;;-0.34;76.12